createdAt,value
2022-09-05T00:02:06.992Z,15.69
2022-09-05T00:04:39.457Z,15.85
2022-09-05T00:07:41.267Z,15.65
2022-09-05T00:10:23.701Z,15.54
2022-09-05T00:12:51.583Z,15.50
2022-09-05T00:15:42.846Z,15.49
2022-09-05T00:21:51.173Z,15.38
2022-09-05T00:24:28.939Z,15.42
2022-09-05T00:24:35.544Z,15.25
2022-09-05T00:27:13.605Z,15.25
2022-09-05T00:31:05.901Z,15.29
2022-09-05T00:32:44.320Z,15.32
2022-09-05T00:35:28.151Z,15.08
2022-09-05T00:37:55.177Z,15.28
2022-09-05T00:40:27.402Z,15.13
2022-09-05T00:42:56.737Z,15.13
2022-09-05T00:45:30.668Z,15.08
2022-09-05T00:48:03.126Z,15.10
2022-09-05T00:50:36.631Z,15.14
2022-09-05T00:53:08.751Z,15.21
2022-09-05T00:55:47.784Z,15.13
2022-09-05T00:58:34.422Z,14.96
2022-09-05T01:01:21.218Z,15.32
2022-09-05T01:03:57.217Z,15.00
2022-09-05T01:06:37.436Z,15.06
2022-09-05T01:09:09.699Z,15.12
2022-09-05T01:11:53.505Z,15.13
2022-09-05T01:14:42.593Z,15.32
2022-09-05T01:17:09.473Z,15.33
2022-09-05T01:19:57.781Z,15.40
2022-09-05T01:22:31.294Z,15.37
2022-09-05T01:25:13.074Z,15.44
2022-09-05T01:28:43.279Z,15.40
2022-09-05T01:30:53.254Z,15.51
2022-09-05T01:33:34.776Z,15.42
2022-09-05T01:36:06.956Z,15.58
2022-09-05T01:38:37.475Z,15.51
2022-09-05T01:41:18.574Z,15.55
2022-09-05T01:44:04.632Z,15.59
2022-09-05T01:46:39.923Z,15.55
2022-09-05T01:49:15.975Z,15.45
2022-09-05T01:52:06.558Z,15.43
2022-09-05T01:54:51.546Z,15.47
2022-09-05T01:57:27.556Z,15.43
2022-09-05T02:00:09.413Z,15.37
2022-09-05T02:02:50.380Z,15.30
2022-09-05T02:05:48.486Z,15.24
2022-09-05T02:08:12.984Z,15.09
2022-09-05T02:11:01.990Z,15.09
2022-09-05T02:13:34.065Z,14.93
2022-09-05T02:16:19.461Z,15.00
2022-09-05T02:18:45.803Z,14.92
2022-09-05T02:21:18.256Z,14.79
2022-09-05T02:23:49.723Z,14.79
2022-09-05T02:26:19.486Z,14.71
2022-09-05T02:28:59.503Z,14.56
2022-09-05T02:31:34.066Z,14.93
2022-09-05T02:34:08.299Z,14.81
2022-09-05T02:36:46.051Z,14.62
2022-09-05T02:45:02.202Z,14.60
2022-09-05T02:45:06.741Z,14.69
2022-09-05T02:45:15.038Z,14.48
2022-09-05T02:47:59.494Z,14.60
2022-09-05T02:53:59.224Z,14.50
2022-09-05T02:57:39.663Z,14.72
2022-09-05T02:57:43.491Z,14.51
2022-09-05T02:59:09.934Z,14.33
2022-09-05T03:01:36.848Z,14.37
2022-09-05T03:04:18.487Z,14.27
2022-09-05T03:07:03.798Z,14.24
2022-09-05T03:09:48.070Z,14.48
2022-09-05T03:12:29.259Z,14.44
2022-09-05T03:14:56.166Z,14.52
2022-09-05T03:17:37.525Z,14.62
2022-09-05T03:20:03.915Z,14.68
2022-09-05T03:22:49.026Z,14.80
2022-09-05T03:25:21.554Z,14.85
2022-09-05T03:27:54.062Z,14.96
2022-09-05T03:30:35.728Z,14.88
2022-09-05T03:33:20.673Z,14.94
2022-09-05T03:35:56.167Z,14.94
2022-09-05T03:38:37.768Z,15.05
2022-09-05T03:41:04.123Z,15.08
2022-09-05T03:43:36.583Z,15.05
2022-09-05T03:46:21.429Z,14.95
2022-09-05T03:51:01.600Z,14.95
2022-09-05T03:57:11.254Z,15.01
2022-09-05T03:57:27.456Z,15.05
2022-09-05T03:57:47.893Z,14.94
2022-09-05T04:00:21.908Z,14.72
2022-09-05T04:08:10.537Z,14.49
2022-09-05T04:08:16.467Z,14.61
2022-09-05T04:08:42.656Z,14.59
2022-09-05T04:11:13.870Z,14.33
2022-09-05T04:13:49.335Z,14.42
2022-09-05T04:16:17.806Z,14.40
2022-09-05T04:18:54.024Z,14.32
2022-09-05T04:21:32.413Z,14.40
2022-09-05T04:24:05.246Z,14.28
2022-09-05T04:26:54.716Z,14.20
2022-09-05T04:29:39.225Z,14.13
2022-09-05T04:32:18.807Z,14.09
2022-09-05T04:35:04.816Z,13.91
2022-09-05T04:37:48.622Z,14.02
2022-09-05T04:40:34.554Z,13.88
2022-09-05T04:43:23.851Z,14.00
2022-09-05T04:45:53.589Z,14.13
2022-09-05T04:48:24.398Z,14.03
2022-09-05T04:51:01.240Z,14.05
2022-09-05T04:53:33.432Z,14.02
2022-09-05T04:56:01.739Z,14.05
2022-09-05T04:59:55.277Z,14.00
2022-09-05T05:06:02.739Z,13.95
2022-09-05T05:06:11.232Z,14.16
2022-09-05T05:07:16.799Z,13.99
2022-09-05T05:09:54.925Z,13.94
2022-09-05T05:18:02.498Z,14.15
2022-09-05T05:18:14.371Z,14.20
2022-09-05T05:18:53.170Z,14.01
2022-09-05T05:21:22.925Z,14.02
2022-09-05T05:23:55.035Z,14.11
2022-09-05T05:26:27.944Z,14.19
2022-09-05T05:29:06.313Z,14.25
2022-09-05T05:31:34.593Z,14.32
2022-09-05T05:34:09.652Z,14.42
2022-09-05T05:37:00.665Z,14.50
2022-09-05T05:39:28.800Z,14.55
2022-09-05T05:41:56.140Z,14.51
2022-09-05T05:44:30.598Z,14.48
2022-09-05T05:46:56.940Z,14.57
2022-09-05T05:49:27.382Z,14.72
2022-09-05T05:52:17.316Z,14.58
2022-09-05T05:54:45.487Z,14.62
2022-09-05T05:57:15.336Z,14.64
2022-09-05T05:59:56.568Z,14.48
2022-09-05T06:02:42.487Z,14.65
2022-09-05T06:05:27.269Z,14.54
2022-09-05T06:09:28.371Z,14.65
2022-09-05T06:15:04.762Z,14.59
2022-09-05T06:15:06.831Z,14.75
2022-09-05T06:16:45.847Z,14.48
2022-09-05T06:19:39.129Z,14.41
2022-09-05T06:22:25.763Z,14.61
2022-09-05T06:25:16.983Z,14.63
2022-09-05T06:28:18.907Z,14.84
2022-09-05T06:30:57.297Z,14.65
2022-09-05T06:33:47.426Z,14.54
2022-09-05T06:36:18.929Z,14.63
2022-09-05T06:38:48.081Z,14.86
2022-09-05T06:41:20.653Z,14.82
2022-09-05T06:44:05.573Z,14.88
2022-09-05T06:47:22.011Z,14.88
2022-09-05T06:49:30.073Z,14.82
2022-09-05T06:52:28.719Z,14.79
2022-09-05T06:54:59.386Z,15.08
2022-09-05T06:57:44.434Z,15.08
2022-09-05T07:00:21.732Z,15.19
2022-09-05T07:03:13.605Z,15.22
2022-09-05T07:05:45.361Z,15.19
2022-09-05T07:08:34.892Z,15.24
2022-09-05T07:11:24.170Z,15.29
2022-09-05T07:13:59.648Z,15.34
2022-09-05T07:16:37.797Z,15.33
2022-09-05T07:19:04.550Z,15.39
2022-09-05T07:21:40.001Z,15.51
2022-09-05T07:24:53.237Z,15.65
2022-09-05T07:27:04.069Z,15.69
2022-09-05T07:29:37.601Z,15.73
2022-09-05T07:32:06.946Z,15.89
2022-09-05T07:34:34.713Z,15.86
2022-09-05T07:37:13.983Z,15.87
2022-09-05T07:39:49.995Z,15.96
2022-09-05T07:42:36.599Z,16.04
2022-09-05T07:45:10.736Z,16.07
2022-09-05T07:47:42.351Z,16.07
2022-09-05T07:51:38.846Z,16.14
2022-09-05T07:56:51.098Z,16.28
2022-09-05T07:57:02.241Z,16.39
2022-09-05T07:59:05.064Z,16.48
2022-09-05T08:01:32.932Z,16.48
2022-09-05T08:04:06.144Z,16.59
2022-09-05T08:07:34.774Z,16.58
2022-09-05T08:10:08.008Z,16.61
2022-09-05T08:12:16.097Z,16.62
2022-09-05T08:14:50.200Z,16.72
2022-09-05T08:17:26.430Z,16.83
2022-09-05T08:20:00.181Z,16.93
2022-09-05T08:22:47.984Z,16.93
2022-09-05T08:25:22.793Z,17.07
2022-09-05T08:28:03.011Z,17.13
2022-09-05T08:30:36.859Z,17.18
2022-09-05T08:33:10.465Z,17.23
2022-09-05T08:35:38.147Z,17.29
2022-09-05T08:38:04.905Z,17.33
2022-09-05T08:40:35.957Z,17.39
2022-09-05T08:46:35.828Z,17.47
2022-09-05T08:46:41.610Z,17.52
2022-09-05T08:48:56.312Z,17.52
2022-09-05T08:51:29.761Z,17.44
2022-09-05T08:53:56.145Z,17.51
2022-09-05T08:56:23.913Z,17.57
2022-09-05T08:59:27.896Z,17.60
2022-09-05T09:02:46.162Z,17.68
2022-09-05T09:05:02.591Z,17.70
2022-09-05T09:07:50.594Z,17.69
2022-09-05T09:10:40.527Z,17.74
2022-09-05T09:13:09.708Z,17.78
2022-09-05T09:15:52.775Z,17.87
2022-09-05T09:18:19.640Z,17.95
2022-09-05T09:20:56.753Z,17.96
2022-09-05T09:23:41.513Z,18.04
2022-09-05T09:26:13.283Z,18.14
2022-09-05T09:29:00.650Z,18.17
2022-09-05T09:31:45.883Z,18.22
2022-09-05T09:34:18.211Z,18.27
2022-09-05T09:36:44.658Z,18.30
2022-09-05T09:39:37.566Z,18.34
2022-09-05T09:42:33.317Z,18.34
2022-09-05T09:45:28.819Z,18.38
2022-09-05T09:48:01.999Z,18.44
2022-09-05T09:50:28.483Z,18.45
2022-09-05T09:53:13.194Z,18.48
2022-09-05T09:55:40.966Z,18.51
2022-09-05T09:58:26.287Z,18.53
2022-09-05T10:01:35.016Z,18.54
2022-09-05T10:07:17.034Z,18.51
2022-09-05T10:10:50.965Z,18.60
2022-09-05T10:10:50.966Z,18.63
2022-09-05T10:13:02.553Z,18.61
2022-09-05T10:15:37.990Z,18.66
2022-09-05T10:18:16.420Z,18.72
2022-09-05T10:21:15.744Z,18.69
2022-09-05T10:24:01.652Z,18.75
2022-09-05T10:26:35.194Z,18.76
2022-09-05T10:29:37.481Z,18.73
2022-09-05T10:35:09.783Z,18.74
2022-09-05T10:35:20.972Z,18.78
2022-09-05T10:37:51.393Z,18.79
2022-09-05T10:40:26.419Z,18.83
2022-09-05T10:43:00.539Z,18.76
2022-09-05T10:45:45.692Z,18.84
2022-09-05T10:48:18.296Z,18.87
2022-09-05T10:50:48.178Z,18.86
2022-09-05T10:53:39.840Z,18.91
2022-09-05T10:56:14.673Z,18.94
2022-09-05T10:59:30.370Z,18.96
2022-09-05T11:02:21.693Z,18.99
2022-09-05T11:04:26.787Z,19.05
2022-09-05T11:07:29.482Z,19.04
2022-09-05T11:09:56.467Z,19.13
2022-09-05T11:12:26.482Z,19.17
2022-09-05T11:14:57.881Z,19.19
2022-09-05T11:17:36.529Z,19.23
2022-09-05T11:20:05.753Z,19.27
2022-09-05T11:22:43.653Z,19.27
2022-09-05T11:25:16.068Z,19.29
2022-09-05T11:27:46.606Z,19.29
2022-09-05T11:30:29.785Z,19.35
2022-09-05T11:38:24.008Z,19.39
2022-09-05T11:39:55.849Z,19.42
2022-09-05T11:40:07.646Z,19.43
2022-09-05T11:42:05.847Z,19.41
2022-09-05T11:44:35.647Z,19.38
2022-09-05T11:47:29.687Z,19.27
2022-09-05T11:50:16.951Z,19.30
2022-09-05T11:52:57.307Z,19.32
2022-09-05T11:55:24.304Z,19.31
2022-09-05T11:57:53.426Z,19.32
2022-09-05T12:00:32.794Z,19.30
2022-09-05T12:03:06.679Z,19.31
2022-09-05T12:05:49.121Z,19.33
2022-09-05T12:08:40.413Z,19.32
2022-09-05T12:11:28.182Z,19.32
2022-09-05T12:14:21.088Z,19.29
2022-09-05T12:16:54.416Z,19.30
2022-09-05T12:19:42.088Z,19.26
2022-09-05T12:22:23.882Z,19.30
2022-09-05T12:25:24.419Z,19.31
2022-09-05T12:28:28.878Z,19.32
2022-09-05T12:31:09.928Z,19.44
2022-09-05T12:36:05.481Z,19.24
2022-09-05T12:40:53.993Z,19.35
2022-09-05T12:42:10.546Z,19.29
2022-09-05T12:42:19.320Z,19.28
2022-09-05T12:45:02.827Z,19.29
2022-09-05T12:47:30.135Z,19.25
2022-09-05T12:50:03.550Z,19.30
2022-09-05T12:52:46.247Z,19.41
2022-09-05T12:55:12.697Z,19.49
2022-09-05T13:00:56.190Z,19.51
2022-09-05T13:03:01.349Z,19.52
2022-09-05T13:03:31.675Z,19.58
2022-09-05T13:05:58.787Z,19.67
2022-09-05T13:08:29.555Z,19.65
2022-09-05T13:14:47.150Z,19.69
2022-09-05T13:14:53.293Z,19.62
2022-09-05T13:16:39.670Z,19.62
2022-09-05T13:19:21.590Z,19.64
2022-09-05T13:21:50.302Z,19.67
2022-09-05T13:24:27.406Z,19.70
2022-09-05T13:27:15.041Z,19.79
2022-09-05T13:32:25.209Z,19.79
2022-09-05T13:38:00.411Z,19.85
2022-09-05T13:38:17.981Z,19.89
2022-09-05T13:39:04.128Z,19.81
2022-09-05T13:41:33.349Z,19.82
2022-09-05T13:44:25.330Z,19.79
2022-09-05T13:46:57.448Z,19.78
2022-09-05T13:49:32.493Z,19.65
2022-09-05T13:52:09.566Z,19.67
2022-09-05T13:54:54.065Z,19.63
2022-09-05T13:57:35.828Z,19.59
2022-09-05T14:00:28.249Z,19.55
2022-09-05T14:03:37.411Z,19.55
2022-09-05T14:06:45.079Z,19.50
2022-09-05T14:09:39.401Z,19.46
2022-09-05T14:12:15.153Z,19.46
2022-09-05T14:20:36.826Z,19.41
2022-09-05T14:23:07.449Z,19.49
2022-09-05T14:25:44.156Z,19.48
2022-09-05T14:28:30.761Z,19.47
2022-09-05T14:32:36.877Z,19.48
2022-09-05T14:37:43.232Z,19.39
2022-09-05T14:37:51.310Z,19.43
2022-09-05T14:39:45.195Z,19.39
2022-09-05T14:42:23.924Z,19.39
2022-09-05T14:45:06.202Z,19.36
2022-09-05T14:47:50.661Z,19.42
2022-09-05T14:50:29.388Z,19.46
2022-09-05T14:57:23.213Z,19.57
2022-09-05T15:02:46.362Z,19.60
2022-09-05T15:02:57.790Z,19.57
2022-09-05T15:04:55.161Z,19.66
2022-09-05T15:07:26.324Z,19.64
2022-09-05T15:12:15.440Z,19.66
2022-09-05T15:13:00.607Z,19.70
2022-09-05T15:15:29.400Z,19.71
2022-09-05T15:17:59.246Z,19.74
2022-09-05T15:20:28.703Z,19.74
2022-09-05T15:22:57.562Z,19.75
2022-09-05T15:25:25.754Z,19.78
2022-09-05T15:27:52.344Z,19.75
2022-09-05T15:30:35.328Z,19.77
2022-09-05T15:33:14.439Z,19.76
2022-09-05T15:35:43.434Z,19.75
2022-09-05T15:38:20.426Z,19.74
2022-09-05T15:41:02.274Z,19.71
2022-09-05T15:43:28.808Z,19.72
2022-09-05T15:46:00.786Z,19.70
2022-09-05T15:48:33.991Z,19.71
2022-09-05T15:51:05.174Z,19.69
2022-09-05T15:53:36.984Z,19.65
2022-09-05T15:56:09.459Z,19.58
2022-09-05T15:58:52.709Z,19.60
2022-09-05T16:01:48.572Z,19.60
2022-09-05T16:10:34.419Z,19.54
2022-09-05T16:10:40.129Z,19.56
2022-09-05T16:10:49.988Z,19.55
2022-09-05T16:12:44.446Z,19.48
2022-09-05T16:18:10.366Z,19.32
2022-09-05T16:23:29.699Z,19.29
2022-09-05T16:23:32.266Z,19.40
2022-09-05T16:24:02.479Z,19.16
2022-09-05T16:26:40.236Z,19.05
2022-09-05T16:29:26.122Z,19.05
2022-09-05T16:31:52.996Z,19.06
2022-09-05T16:34:30.546Z,18.98
2022-09-05T16:37:10.128Z,18.90
2022-09-05T16:39:59.431Z,18.78
2022-09-05T16:42:46.583Z,18.91
2022-09-05T16:45:19.670Z,18.98
2022-09-05T16:48:06.337Z,19.12
2022-09-05T16:50:48.193Z,19.16
2022-09-05T16:53:30.165Z,19.19
2022-09-05T16:56:30.188Z,19.20
2022-09-05T16:59:03.335Z,19.15
2022-09-05T17:01:30.068Z,19.18
2022-09-05T17:04:02.547Z,19.16
2022-09-05T17:06:35.154Z,19.10
2022-09-05T17:09:13.182Z,19.15
2022-09-05T17:12:00.304Z,19.11
2022-09-05T17:14:33.012Z,19.10
2022-09-05T17:17:02.287Z,19.10
2022-09-05T17:20:06.868Z,19.01
2022-09-05T17:24:02.088Z,18.96
2022-09-05T17:29:28.327Z,18.87
2022-09-05T17:29:36.338Z,18.90
2022-09-05T17:31:56.180Z,18.83
2022-09-05T17:34:25.228Z,18.82
2022-09-05T17:37:01.518Z,18.69
2022-09-05T17:39:45.172Z,18.72
2022-09-05T17:42:32.700Z,18.62
2022-09-05T17:45:22.892Z,18.43
2022-09-05T17:47:51.744Z,18.29
2022-09-05T17:50:18.710Z,18.35
2022-09-05T17:53:25.979Z,18.18
2022-09-05T17:55:49.580Z,18.08
2022-09-05T17:58:49.956Z,18.08
2022-09-05T18:01:26.989Z,18.08
2022-09-05T18:03:55.492Z,17.95
2022-09-05T18:06:43.607Z,17.91
2022-09-05T18:09:38.324Z,17.80
2022-09-05T18:12:08.470Z,17.73
2022-09-05T18:15:04.823Z,17.85
2022-09-05T18:17:47.554Z,17.69
2022-09-05T18:20:16.897Z,17.76
2022-09-05T18:22:46.813Z,17.59
2022-09-05T18:28:12.628Z,17.52
2022-09-05T18:30:39.086Z,17.58
2022-09-05T18:33:56.303Z,17.49
2022-09-05T18:35:54.197Z,17.48
2022-09-05T18:38:26.130Z,17.62
2022-09-05T18:41:09.333Z,17.55
2022-09-05T18:43:39.016Z,17.54
2022-09-05T18:46:14.271Z,17.58
2022-09-05T18:49:04.190Z,17.57
2022-09-05T18:51:53.833Z,17.63
2022-09-05T18:54:21.898Z,17.71
2022-09-05T18:57:26.777Z,17.76
2022-09-05T18:59:48.427Z,17.80
2022-09-05T19:02:26.929Z,17.83
2022-09-05T19:05:16.021Z,17.84
2022-09-05T19:07:48.536Z,17.89
2022-09-05T19:10:35.024Z,17.87
2022-09-05T19:13:31.734Z,17.89
2022-09-05T19:16:44.100Z,17.89
2022-09-05T19:19:06.285Z,17.90
2022-09-05T19:21:33.669Z,17.74
2022-09-05T19:24:04.464Z,17.83
2022-09-05T19:26:33.893Z,17.73
2022-09-05T19:36:44.810Z,17.66
2022-09-05T19:36:59.598Z,17.74
2022-09-05T19:37:03.965Z,17.63
2022-09-05T19:37:47.613Z,17.45
2022-09-05T19:47:29.103Z,17.29
2022-09-05T19:47:38.167Z,17.34
2022-09-05T19:47:43.455Z,17.31
2022-09-05T19:49:05.735Z,17.20
2022-09-05T19:51:32.896Z,17.21
2022-09-05T19:54:05.453Z,17.17
2022-09-05T19:56:44.301Z,17.16
2022-09-05T19:59:22.841Z,17.12
2022-09-05T20:01:51.962Z,16.98
2022-09-05T20:04:19.499Z,16.90
2022-09-05T20:06:47.132Z,17.01
2022-09-05T20:09:19.724Z,16.98
2022-09-05T20:11:48.380Z,17.03
2022-09-05T20:14:21.365Z,17.00
2022-09-05T20:16:50.118Z,16.91
2022-09-05T20:19:25.538Z,16.82
2022-09-05T20:21:57.092Z,16.79
2022-09-05T20:24:24.108Z,16.81
2022-09-05T20:26:50.516Z,16.97
2022-09-05T20:29:37.516Z,16.98
2022-09-05T20:32:15.135Z,16.93
2022-09-05T20:35:45.429Z,17.09
2022-09-05T20:43:09.963Z,17.02
2022-09-05T20:43:30.867Z,17.11
2022-09-05T20:43:30.867Z,17.13
2022-09-05T20:46:19.517Z,17.17
2022-09-05T20:54:06.677Z,17.11
2022-09-05T20:54:18.860Z,17.22
2022-09-05T20:54:34.687Z,17.24
2022-09-05T20:57:12.348Z,17.24
2022-09-05T20:59:41.465Z,17.24
2022-09-05T21:02:18.768Z,17.31
2022-09-05T21:04:54.218Z,17.23
2022-09-05T21:07:23.481Z,17.27
2022-09-05T21:09:59.698Z,17.36
2022-09-05T21:12:28.247Z,17.29
2022-09-05T21:15:44.131Z,17.32
2022-09-05T21:18:01.582Z,17.17
2022-09-05T21:20:27.983Z,17.03
2022-09-05T21:22:54.405Z,16.88
2022-09-05T21:25:25.574Z,16.89
2022-09-05T21:28:07.370Z,16.66
2022-09-05T21:30:38.696Z,16.50
2022-09-05T21:33:24.668Z,16.55
2022-09-05T21:36:03.169Z,16.48
2022-09-05T21:38:32.563Z,16.36
2022-09-05T21:41:03.172Z,16.39
2022-09-05T21:47:33.495Z,16.35
2022-09-05T21:47:47.726Z,16.14
2022-09-05T21:49:03.289Z,16.22
2022-09-05T21:51:31.364Z,16.18
2022-09-05T21:58:52.502Z,16.11
2022-09-05T21:59:20.587Z,16.14
2022-09-05T21:59:47.590Z,15.99
2022-09-05T22:02:17.418Z,15.91
2022-09-05T22:04:44.278Z,15.94
2022-09-05T22:07:32.466Z,15.83
2022-09-05T22:10:00.028Z,15.76
2022-09-05T22:12:38.468Z,15.77
2022-09-05T22:15:27.329Z,15.73
2022-09-05T22:18:16.487Z,15.63
2022-09-05T22:20:44.812Z,15.60
2022-09-05T22:23:11.581Z,15.60
2022-09-05T22:25:38.914Z,15.48
2022-09-05T22:28:06.430Z,15.54
2022-09-05T22:30:36.196Z,15.56
2022-09-05T22:33:07.363Z,15.61
2022-09-05T22:35:35.187Z,15.69
2022-09-05T22:38:16.451Z,15.76
2022-09-05T22:40:45.765Z,15.66
2022-09-05T22:43:14.736Z,15.81
2022-09-05T22:45:41.531Z,15.87
2022-09-05T22:48:12.212Z,16.01
2022-09-05T22:50:39.153Z,15.94
2022-09-05T22:53:07.271Z,15.98
2022-09-05T22:55:37.791Z,15.95
2022-09-05T22:58:04.849Z,15.96
2022-09-05T23:00:31.250Z,15.98
2022-09-05T23:02:58.186Z,16.14
2022-09-05T23:05:24.795Z,16.11
2022-09-05T23:07:51.271Z,16.14
2022-09-05T23:10:17.671Z,16.05
2022-09-05T23:12:44.077Z,16.11
2022-09-05T23:15:10.740Z,15.87
2022-09-05T23:17:37.106Z,15.94
2022-09-05T23:20:03.813Z,15.80
2022-09-05T23:22:30.144Z,15.81
2022-09-05T23:24:56.493Z,15.77
2022-09-05T23:27:22.844Z,15.62
2022-09-05T23:29:49.173Z,15.69
2022-09-05T23:32:15.604Z,15.51
2022-09-05T23:34:42.040Z,15.42
2022-09-05T23:37:08.751Z,15.49
2022-09-05T23:39:35.161Z,15.49
2022-09-05T23:42:01.608Z,15.48
2022-09-05T23:44:27.980Z,15.38
2022-09-05T23:46:54.351Z,15.65
2022-09-05T23:49:20.753Z,15.62
2022-09-05T23:51:47.179Z,15.24
2022-09-05T23:54:13.521Z,15.43
2022-09-05T23:56:39.885Z,15.37
2022-09-05T23:59:06.335Z,15.56
